sensor_id;sensor_type;location;lat;lon;timestamp;P1;durP1;ratioP1;P2;durP2;ratioP2
10471;SDS011;5283;48.876;8.962;2022-08-25T00:02:02;4.43;;;4.03;;
10471;SDS011;5283;48.876;8.962;2022-08-25T00:04:32;4.33;;;3.87;;
10471;SDS011;5283;48.876;8.962;2022-08-25T00:07:01;3.70;;;3.40;;
10471;SDS011;5283;48.876;8.962;2022-08-25T00:09:29;4.00;;;3.70;;
10471;SDS011;5283;48.876;8.962;2022-08-25T00:11:58;3.60;;;3.30;;
10471;SDS011;5283;48.876;8.962;2022-08-25T00:14:26;3.33;;;3.13;;
10471;SDS011;5283;48.876;8.962;2022-08-25T00:16:56;4.00;;;3.70;;
10471;SDS011;5283;48.876;8.962;2022-08-25T00:19:24;3.93;;;3.50;;
10471;SDS011;5283;48.876;8.962;2022-08-25T00:21:54;3.33;;;3.13;;
10471;SDS011;5283;48.876;8.962;2022-08-25T00:24:22;4.13;;;3.83;;
10471;SDS011;5283;48.876;8.962;2022-08-25T00:26:50;4.40;;;4.00;;
10471;SDS011;5283;48.876;8.962;2022-08-25T00:29:20;4.33;;;4.00;;
10471;SDS011;5283;48.876;8.962;2022-08-25T00:31:49;4.27;;;3.87;;
10471;SDS011;5283;48.876;8.962;2022-08-25T00:34:18;4.53;;;4.10;;
10471;SDS011;5283;48.876;8.962;2022-08-25T00:36:47;4.30;;;3.73;;
10471;SDS011;5283;48.876;8.962;2022-08-25T00:39:17;4.17;;;3.87;;
10471;SDS011;5283;48.876;8.962;2022-08-25T00:41:46;4.80;;;4.40;;
10471;SDS011;5283;48.876;8.962;2022-08-25T00:44:14;4.10;;;3.80;;
10471;SDS011;5283;48.876;8.962;2022-08-25T00:46:45;4.43;;;4.03;;
10471;SDS011;5283;48.876;8.962;2022-08-25T00:52:26;4.20;;;3.90;;
10471;SDS011;5283;48.876;8.962;2022-08-25T00:55:08;4.83;;;4.30;;
10471;SDS011;5283;48.876;8.962;2022-08-25T00:57:43;4.60;;;4.20;;
10471;SDS011;5283;48.876;8.962;2022-08-25T01:00:18;5.27;;;4.43;;
10471;SDS011;5283;48.876;8.962;2022-08-25T01:02:52;4.67;;;4.30;;
10471;SDS011;5283;48.876;8.962;2022-08-25T01:05:19;4.50;;;4.10;;
10471;SDS011;5283;48.876;8.962;2022-08-25T01:07:46;4.77;;;4.37;;
10471;SDS011;5283;48.876;8.962;2022-08-25T01:10:15;8.37;;;4.60;;
10471;SDS011;5283;48.876;8.962;2022-08-25T01:12:43;5.27;;;4.77;;
10471;SDS011;5283;48.876;8.962;2022-08-25T01:15:11;4.90;;;4.40;;
10471;SDS011;5283;48.876;8.962;2022-08-25T01:20:11;5.07;;;4.67;;
10471;SDS011;5283;48.876;8.962;2022-08-25T01:22:39;5.10;;;4.57;;
10471;SDS011;5283;48.876;8.962;2022-08-25T01:25:14;6.20;;;4.77;;
10471;SDS011;5283;48.876;8.962;2022-08-25T01:28:03;4.90;;;4.60;;
10471;SDS011;5283;48.876;8.962;2022-08-25T01:30:31;5.30;;;4.80;;
10471;SDS011;5283;48.876;8.962;2022-08-25T01:33:01;5.00;;;4.50;;
10471;SDS011;5283;48.876;8.962;2022-08-25T01:35:33;5.37;;;4.87;;
10471;SDS011;5283;48.876;8.962;2022-08-25T01:38:01;5.57;;;5.07;;
10471;SDS011;5283;48.876;8.962;2022-08-25T01:40:29;5.03;;;4.63;;
10471;SDS011;5283;48.876;8.962;2022-08-25T01:45:35;5.07;;;4.67;;
10471;SDS011;5283;48.876;8.962;2022-08-25T01:48:03;4.87;;;4.47;;
10471;SDS011;5283;48.876;8.962;2022-08-25T01:50:32;5.07;;;4.57;;
10471;SDS011;5283;48.876;8.962;2022-08-25T01:53:02;5.73;;;4.93;;
10471;SDS011;5283;48.876;8.962;2022-08-25T01:55:33;5.07;;;4.67;;
10471;SDS011;5283;48.876;8.962;2022-08-25T01:58:17;5.93;;;4.90;;
10471;SDS011;5283;48.876;8.962;2022-08-25T02:00:46;5.10;;;4.70;;
10471;SDS011;5283;48.876;8.962;2022-08-25T02:03:15;5.20;;;4.80;;
10471;SDS011;5283;48.876;8.962;2022-08-25T02:05:43;5.53;;;4.80;;
10471;SDS011;5283;48.876;8.962;2022-08-25T02:08:10;6.10;;;5.23;;
10471;SDS011;5283;48.876;8.962;2022-08-25T02:10:37;6.07;;;4.67;;
10471;SDS011;5283;48.876;8.962;2022-08-25T02:13:06;6.03;;;5.43;;
10471;SDS011;5283;48.876;8.962;2022-08-25T02:15:33;5.90;;;5.40;;
10471;SDS011;5283;48.876;8.962;2022-08-25T02:18:00;6.00;;;5.40;;
10471;SDS011;5283;48.876;8.962;2022-08-25T02:20:27;5.50;;;5.10;;
10471;SDS011;5283;48.876;8.962;2022-08-25T02:22:54;5.63;;;5.10;;
10471;SDS011;5283;48.876;8.962;2022-08-25T02:25:21;4.93;;;4.53;;
10471;SDS011;5283;48.876;8.962;2022-08-25T02:27:48;5.37;;;4.90;;
10471;SDS011;5283;48.876;8.962;2022-08-25T02:30:15;5.83;;;5.33;;
10471;SDS011;5283;48.876;8.962;2022-08-25T02:32:42;6.50;;;5.67;;
10471;SDS011;5283;48.876;8.962;2022-08-25T02:35:09;6.77;;;5.67;;
10471;SDS011;5283;48.876;8.962;2022-08-25T02:37:36;6.00;;;5.50;;
10471;SDS011;5283;48.876;8.962;2022-08-25T02:40:03;6.13;;;5.40;;
10471;SDS011;5283;48.876;8.962;2022-08-25T02:42:31;6.37;;;5.87;;
10471;SDS011;5283;48.876;8.962;2022-08-25T02:44:58;6.70;;;6.00;;
10471;SDS011;5283;48.876;8.962;2022-08-25T02:47:25;6.40;;;5.80;;
10471;SDS011;5283;48.876;8.962;2022-08-25T02:49:52;6.70;;;6.10;;
10471;SDS011;5283;48.876;8.962;2022-08-25T02:52:18;5.97;;;5.47;;
10471;SDS011;5283;48.876;8.962;2022-08-25T02:54:45;6.93;;;6.00;;
10471;SDS011;5283;48.876;8.962;2022-08-25T02:57:12;6.30;;;5.70;;
10471;SDS011;5283;48.876;8.962;2022-08-25T02:59:40;6.00;;;5.50;;
10471;SDS011;5283;48.876;8.962;2022-08-25T03:02:07;6.10;;;5.60;;
10471;SDS011;5283;48.876;8.962;2022-08-25T03:04:34;5.60;;;5.10;;
10471;SDS011;5283;48.876;8.962;2022-08-25T03:07:01;5.80;;;5.30;;
10471;SDS011;5283;48.876;8.962;2022-08-25T03:09:28;6.40;;;5.43;;
10471;SDS011;5283;48.876;8.962;2022-08-25T03:11:55;6.00;;;5.50;;
10471;SDS011;5283;48.876;8.962;2022-08-25T03:14:22;6.33;;;5.73;;
10471;SDS011;5283;48.876;8.962;2022-08-25T03:16:49;6.77;;;6.07;;
10471;SDS011;5283;48.876;8.962;2022-08-25T03:19:16;7.87;;;6.30;;
10471;SDS011;5283;48.876;8.962;2022-08-25T03:21:43;6.67;;;6.07;;
10471;SDS011;5283;48.876;8.962;2022-08-25T03:24:11;6.43;;;5.93;;
10471;SDS011;5283;48.876;8.962;2022-08-25T03:26:37;6.10;;;5.60;;
10471;SDS011;5283;48.876;8.962;2022-08-25T03:29:27;6.67;;;6.00;;
10471;SDS011;5283;48.876;8.962;2022-08-25T03:31:56;6.20;;;5.67;;
10471;SDS011;5283;48.876;8.962;2022-08-25T03:34:24;6.43;;;5.87;;
10471;SDS011;5283;48.876;8.962;2022-08-25T03:36:53;6.10;;;5.60;;
10471;SDS011;5283;48.876;8.962;2022-08-25T03:39:22;7.03;;;6.43;;
10471;SDS011;5283;48.876;8.962;2022-08-25T03:41:50;7.40;;;6.67;;
10471;SDS011;5283;48.876;8.962;2022-08-25T03:44:18;7.00;;;6.30;;
10471;SDS011;5283;48.876;8.962;2022-08-25T03:46:46;7.47;;;6.77;;
10471;SDS011;5283;48.876;8.962;2022-08-25T03:49:21;7.63;;;7.03;;
10471;SDS011;5283;48.876;8.962;2022-08-25T03:51:49;7.03;;;6.43;;
10471;SDS011;5283;48.876;8.962;2022-08-25T03:54:20;7.07;;;6.47;;
10471;SDS011;5283;48.876;8.962;2022-08-25T03:56:48;6.63;;;6.07;;
10471;SDS011;5283;48.876;8.962;2022-08-25T03:59:15;6.97;;;6.37;;
10471;SDS011;5283;48.876;8.962;2022-08-25T04:01:43;7.67;;;7.07;;
10471;SDS011;5283;48.876;8.962;2022-08-25T04:04:12;7.90;;;7.20;;
10471;SDS011;5283;48.876;8.962;2022-08-25T04:06:40;8.27;;;7.27;;
10471;SDS011;5283;48.876;8.962;2022-08-25T04:09:09;7.77;;;7.00;;
10471;SDS011;5283;48.876;8.962;2022-08-25T04:11:36;8.77;;;6.70;;
10471;SDS011;5283;48.876;8.962;2022-08-25T04:14:03;7.27;;;6.57;;
10471;SDS011;5283;48.876;8.962;2022-08-25T04:16:31;6.87;;;6.17;;
10471;SDS011;5283;48.876;8.962;2022-08-25T04:19:01;6.77;;;6.17;;
10471;SDS011;5283;48.876;8.962;2022-08-25T04:21:29;6.77;;;6.07;;
10471;SDS011;5283;48.876;8.962;2022-08-25T04:23:56;7.60;;;6.90;;
10471;SDS011;5283;48.876;8.962;2022-08-25T04:26:25;7.30;;;6.60;;
10471;SDS011;5283;48.876;8.962;2022-08-25T04:28:54;7.53;;;6.83;;
10471;SDS011;5283;48.876;8.962;2022-08-25T04:31:23;7.87;;;7.17;;
10471;SDS011;5283;48.876;8.962;2022-08-25T04:33:50;7.60;;;6.70;;
10471;SDS011;5283;48.876;8.962;2022-08-25T04:36:18;7.30;;;6.70;;
10471;SDS011;5283;48.876;8.962;2022-08-25T04:38:46;7.50;;;6.80;;
10471;SDS011;5283;48.876;8.962;2022-08-25T04:41:15;8.17;;;7.23;;
10471;SDS011;5283;48.876;8.962;2022-08-25T04:43:44;7.17;;;6.50;;
10471;SDS011;5283;48.876;8.962;2022-08-25T04:46:13;7.70;;;7.00;;
10471;SDS011;5283;48.876;8.962;2022-08-25T04:48:41;9.07;;;7.97;;
10471;SDS011;5283;48.876;8.962;2022-08-25T04:51:13;9.10;;;8.00;;
10471;SDS011;5283;48.876;8.962;2022-08-25T04:53:41;9.37;;;7.70;;
10471;SDS011;5283;48.876;8.962;2022-08-25T04:56:09;9.63;;;8.67;;
10471;SDS011;5283;48.876;8.962;2022-08-25T04:58:40;10.87;;;8.63;;
10471;SDS011;5283;48.876;8.962;2022-08-25T05:01:08;9.73;;;8.83;;
10471;SDS011;5283;48.876;8.962;2022-08-25T05:03:37;9.23;;;8.27;;
10471;SDS011;5283;48.876;8.962;2022-08-25T05:06:04;9.03;;;8.13;;
10471;SDS011;5283;48.876;8.962;2022-08-25T05:08:31;8.87;;;8.07;;
10471;SDS011;5283;48.876;8.962;2022-08-25T05:11:03;8.43;;;7.63;;
10471;SDS011;5283;48.876;8.962;2022-08-25T05:13:31;9.03;;;6.60;;
10471;SDS011;5283;48.876;8.962;2022-08-25T05:15:58;6.83;;;5.50;;
10471;SDS011;5283;48.876;8.962;2022-08-25T05:18:26;5.77;;;5.23;;
10471;SDS011;5283;48.876;8.962;2022-08-25T05:20:55;4.77;;;4.37;;
10471;SDS011;5283;48.876;8.962;2022-08-25T05:23:26;4.37;;;4.03;;
10471;SDS011;5283;48.876;8.962;2022-08-25T05:25:52;4.67;;;4.03;;
10471;SDS011;5283;48.876;8.962;2022-08-25T05:28:19;4.30;;;3.90;;
10471;SDS011;5283;48.876;8.962;2022-08-25T05:30:46;3.83;;;3.53;;
10471;SDS011;5283;48.876;8.962;2022-08-25T05:33:16;3.97;;;3.67;;
10471;SDS011;5283;48.876;8.962;2022-08-25T05:35:43;4.97;;;3.63;;
10471;SDS011;5283;48.876;8.962;2022-08-25T05:38:10;4.00;;;3.60;;
10471;SDS011;5283;48.876;8.962;2022-08-25T05:40:37;3.90;;;3.60;;
10471;SDS011;5283;48.876;8.962;2022-08-25T05:43:04;4.23;;;3.83;;
10471;SDS011;5283;48.876;8.962;2022-08-25T05:45:30;4.13;;;3.80;;
10471;SDS011;5283;48.876;8.962;2022-08-25T05:47:57;4.93;;;3.57;;
10471;SDS011;5283;48.876;8.962;2022-08-25T05:50:24;4.03;;;3.73;;
10471;SDS011;5283;48.876;8.962;2022-08-25T05:52:50;4.10;;;3.80;;
10471;SDS011;5283;48.876;8.962;2022-08-25T05:55:17;5.57;;;3.93;;
10471;SDS011;5283;48.876;8.962;2022-08-25T05:57:44;4.40;;;4.03;;
10471;SDS011;5283;48.876;8.962;2022-08-25T06:00:11;4.20;;;3.90;;
10471;SDS011;5283;48.876;8.962;2022-08-25T06:02:38;4.23;;;3.67;;
10471;SDS011;5283;48.876;8.962;2022-08-25T06:05:17;4.10;;;3.80;;
10471;SDS011;5283;48.876;8.962;2022-08-25T06:07:47;4.33;;;4.03;;
10471;SDS011;5283;48.876;8.962;2022-08-25T06:10:16;4.33;;;3.93;;
10471;SDS011;5283;48.876;8.962;2022-08-25T06:12:45;4.20;;;3.90;;
10471;SDS011;5283;48.876;8.962;2022-08-25T06:15:14;4.80;;;4.40;;
10471;SDS011;5283;48.876;8.962;2022-08-25T06:17:42;4.90;;;4.40;;
10471;SDS011;5283;48.876;8.962;2022-08-25T06:20:10;5.67;;;4.47;;
10471;SDS011;5283;48.876;8.962;2022-08-25T06:22:38;5.10;;;4.40;;
10471;SDS011;5283;48.876;8.962;2022-08-25T06:25:06;4.67;;;4.10;;
10471;SDS011;5283;48.876;8.962;2022-08-25T06:27:35;4.10;;;3.80;;
10471;SDS011;5283;48.876;8.962;2022-08-25T06:30:03;6.80;;;4.50;;
10471;SDS011;5283;48.876;8.962;2022-08-25T06:32:31;4.07;;;3.77;;
10471;SDS011;5283;48.876;8.962;2022-08-25T06:34:59;4.60;;;3.90;;
10471;SDS011;5283;48.876;8.962;2022-08-25T06:37:25;5.27;;;3.90;;
10471;SDS011;5283;48.876;8.962;2022-08-25T06:39:52;5.67;;;4.03;;
10471;SDS011;5283;48.876;8.962;2022-08-25T06:42:19;6.63;;;3.57;;
10471;SDS011;5283;48.876;8.962;2022-08-25T06:44:46;8.90;;;4.17;;
10471;SDS011;5283;48.876;8.962;2022-08-25T06:47:13;6.20;;;4.10;;
10471;SDS011;5283;48.876;8.962;2022-08-25T06:49:43;8.00;;;3.50;;
10471;SDS011;5283;48.876;8.962;2022-08-25T06:52:11;8.43;;;4.10;;
10471;SDS011;5283;48.876;8.962;2022-08-25T06:54:39;5.13;;;3.93;;
10471;SDS011;5283;48.876;8.962;2022-08-25T06:57:06;5.93;;;4.07;;
10471;SDS011;5283;48.876;8.962;2022-08-25T06:59:34;5.40;;;4.00;;
10471;SDS011;5283;48.876;8.962;2022-08-25T07:02:02;5.67;;;4.10;;
10471;SDS011;5283;48.876;8.962;2022-08-25T07:04:31;8.73;;;4.60;;
10471;SDS011;5283;48.876;8.962;2022-08-25T07:06:58;5.83;;;3.87;;
10471;SDS011;5283;48.876;8.962;2022-08-25T07:09:25;8.37;;;4.50;;
10471;SDS011;5283;48.876;8.962;2022-08-25T07:11:52;4.90;;;4.50;;
10471;SDS011;5283;48.876;8.962;2022-08-25T07:14:19;8.75;;;4.78;;
10471;SDS011;5283;48.876;8.962;2022-08-25T07:16:47;5.37;;;4.77;;
10471;SDS011;5283;48.876;8.962;2022-08-25T07:19:14;6.45;;;4.68;;
10471;SDS011;5283;48.876;8.962;2022-08-25T07:21:42;7.30;;;4.90;;
10471;SDS011;5283;48.876;8.962;2022-08-25T07:24:11;5.25;;;4.70;;
10471;SDS011;5283;48.876;8.962;2022-08-25T07:26:40;5.07;;;4.50;;
10471;SDS011;5283;48.876;8.962;2022-08-25T07:29:10;6.28;;;4.90;;
10471;SDS011;5283;48.876;8.962;2022-08-25T07:31:39;5.57;;;5.07;;
10471;SDS011;5283;48.876;8.962;2022-08-25T07:34:06;7.63;;;5.00;;
10471;SDS011;5283;48.876;8.962;2022-08-25T07:36:52;6.40;;;5.17;;
10471;SDS011;5283;48.876;8.962;2022-08-25T07:39:19;5.67;;;5.13;;
10471;SDS011;5283;48.876;8.962;2022-08-25T07:41:46;5.63;;;5.13;;
10471;SDS011;5283;48.876;8.962;2022-08-25T07:44:13;6.03;;;5.43;;
10471;SDS011;5283;48.876;8.962;2022-08-25T07:46:40;5.97;;;5.43;;
10471;SDS011;5283;48.876;8.962;2022-08-25T07:49:07;6.77;;;5.13;;
10471;SDS011;5283;48.876;8.962;2022-08-25T07:51:34;6.87;;;5.13;;
10471;SDS011;5283;48.876;8.962;2022-08-25T07:54:00;5.90;;;4.97;;
10471;SDS011;5283;48.876;8.962;2022-08-25T07:56:27;6.50;;;5.30;;
10471;SDS011;5283;48.876;8.962;2022-08-25T07:58:54;6.67;;;5.30;;
10471;SDS011;5283;48.876;8.962;2022-08-25T08:01:21;5.57;;;5.07;;
10471;SDS011;5283;48.876;8.962;2022-08-25T08:03:50;7.20;;;5.80;;
10471;SDS011;5283;48.876;8.962;2022-08-25T08:06:18;6.33;;;5.83;;
10471;SDS011;5283;48.876;8.962;2022-08-25T08:08:47;6.13;;;5.00;;
10471;SDS011;5283;48.876;8.962;2022-08-25T08:11:23;6.80;;;5.40;;
10471;SDS011;5283;48.876;8.962;2022-08-25T08:13:55;6.03;;;5.47;;
10471;SDS011;5283;48.876;8.962;2022-08-25T08:16:24;6.13;;;5.57;;
10471;SDS011;5283;48.876;8.962;2022-08-25T08:18:52;6.40;;;5.87;;
10471;SDS011;5283;48.876;8.962;2022-08-25T08:21:30;6.00;;;5.40;;
10471;SDS011;5283;48.876;8.962;2022-08-25T08:23:58;6.73;;;5.47;;
10471;SDS011;5283;48.876;8.962;2022-08-25T08:26:26;5.40;;;4.93;;
10471;SDS011;5283;48.876;8.962;2022-08-25T08:29:02;5.60;;;5.10;;
10471;SDS011;5283;48.876;8.962;2022-08-25T08:31:29;6.83;;;5.07;;
10471;SDS011;5283;48.876;8.962;2022-08-25T08:33:56;7.10;;;5.00;;
10471;SDS011;5283;48.876;8.962;2022-08-25T08:36:23;5.20;;;4.70;;
10471;SDS011;5283;48.876;8.962;2022-08-25T08:38:51;5.77;;;4.80;;
10471;SDS011;5283;48.876;8.962;2022-08-25T08:47:22;4.90;;;4.50;;
10471;SDS011;5283;48.876;8.962;2022-08-25T08:53:08;5.30;;;4.80;;
10471;SDS011;5283;48.876;8.962;2022-08-25T08:55:42;5.13;;;4.67;;
10471;SDS011;5283;48.876;8.962;2022-08-25T08:58:18;6.83;;;4.80;;
10471;SDS011;5283;48.876;8.962;2022-08-25T09:00:53;5.53;;;4.70;;
10471;SDS011;5283;48.876;8.962;2022-08-25T09:03:34;5.07;;;4.67;;
10471;SDS011;5283;48.876;8.962;2022-08-25T09:06:05;6.67;;;5.10;;
10471;SDS011;5283;48.876;8.962;2022-08-25T09:08:38;5.47;;;4.40;;
10471;SDS011;5283;48.876;8.962;2022-08-25T09:16:32;5.83;;;4.57;;
10471;SDS011;5283;48.876;8.962;2022-08-25T09:28:00;5.10;;;4.60;;
10471;SDS011;5283;48.876;8.962;2022-08-25T09:30:53;5.40;;;4.90;;
10471;SDS011;5283;48.876;8.962;2022-08-25T09:33:26;4.97;;;4.50;;
10471;SDS011;5283;48.876;8.962;2022-08-25T09:35:56;5.30;;;4.80;;
10471;SDS011;5283;48.876;8.962;2022-08-25T09:38:23;6.43;;;4.70;;
10471;SDS011;5283;48.876;8.962;2022-08-25T09:40:56;5.00;;;4.50;;
10471;SDS011;5283;48.876;8.962;2022-08-25T09:46:11;3.90;;;3.60;;
10471;SDS011;5283;48.876;8.962;2022-08-25T09:48:47;7.07;;;4.30;;
10471;SDS011;5283;48.876;8.962;2022-08-25T09:56:50;4.90;;;4.40;;
10471;SDS011;5283;48.876;8.962;2022-08-25T09:59:19;4.50;;;4.10;;
10471;SDS011;5283;48.876;8.962;2022-08-25T10:01:55;4.77;;;4.17;;
10471;SDS011;5283;48.876;8.962;2022-08-25T10:06:54;10.03;;;4.07;;
10471;SDS011;5283;48.876;8.962;2022-08-25T10:09:26;4.57;;;4.00;;
10471;SDS011;5283;48.876;8.962;2022-08-25T10:11:58;5.37;;;4.10;;
10471;SDS011;5283;48.876;8.962;2022-08-25T10:14:27;4.20;;;3.90;;
10471;SDS011;5283;48.876;8.962;2022-08-25T10:17:23;4.40;;;4.00;;
10471;SDS011;5283;48.876;8.962;2022-08-25T10:22:48;4.80;;;4.43;;
10471;SDS011;5283;48.876;8.962;2022-08-25T10:25:19;4.43;;;4.03;;
10471;SDS011;5283;48.876;8.962;2022-08-25T10:33:29;4.40;;;4.00;;
10471;SDS011;5283;48.876;8.962;2022-08-25T10:36:19;4.10;;;3.70;;
10471;SDS011;5283;48.876;8.962;2022-08-25T10:41:42;4.80;;;4.33;;
10471;SDS011;5283;48.876;8.962;2022-08-25T10:44:33;3.83;;;3.53;;
10471;SDS011;5283;48.876;8.962;2022-08-25T10:48:05;4.00;;;3.70;;
10471;SDS011;5283;48.876;8.962;2022-08-25T10:56:34;5.53;;;3.93;;
10471;SDS011;5283;48.876;8.962;2022-08-25T10:59:16;4.50;;;4.10;;
10471;SDS011;5283;48.876;8.962;2022-08-25T11:07:10;7.57;;;4.03;;
10471;SDS011;5283;48.876;8.962;2022-08-25T11:09:46;4.10;;;3.80;;
10471;SDS011;5283;48.876;8.962;2022-08-25T11:14:52;4.27;;;3.87;;
10471;SDS011;5283;48.876;8.962;2022-08-25T11:17:23;4.50;;;4.07;;
10471;SDS011;5283;48.876;8.962;2022-08-25T11:19:56;4.50;;;4.10;;
10471;SDS011;5283;48.876;8.962;2022-08-25T11:22:41;5.53;;;3.90;;
10471;SDS011;5283;48.876;8.962;2022-08-25T11:28:10;6.53;;;4.07;;
10471;SDS011;5283;48.876;8.962;2022-08-25T11:30:41;6.10;;;4.40;;
10471;SDS011;5283;48.876;8.962;2022-08-25T11:33:12;4.93;;;4.50;;
10471;SDS011;5283;48.876;8.962;2022-08-25T11:35:52;4.57;;;3.97;;
10471;SDS011;5283;48.876;8.962;2022-08-25T11:39:11;5.03;;;4.07;;
10471;SDS011;5283;48.876;8.962;2022-08-25T11:49:48;4.10;;;3.70;;
10471;SDS011;5283;48.876;8.962;2022-08-25T11:57:51;3.83;;;3.53;;
10471;SDS011;5283;48.876;8.962;2022-08-25T12:00:39;4.13;;;3.73;;
10471;SDS011;5283;48.876;8.962;2022-08-25T12:06:13;3.90;;;3.30;;
10471;SDS011;5283;48.876;8.962;2022-08-25T12:30:40;3.90;;;3.60;;
10471;SDS011;5283;48.876;8.962;2022-08-25T12:40:35;3.77;;;3.47;;
10471;SDS011;5283;48.876;8.962;2022-08-25T12:45:48;3.77;;;3.47;;
10471;SDS011;5283;48.876;8.962;2022-08-25T12:53:42;4.87;;;3.80;;
10471;SDS011;5283;48.876;8.962;2022-08-25T12:56:20;4.47;;;3.40;;
10471;SDS011;5283;48.876;8.962;2022-08-25T12:59:02;5.53;;;3.80;;
10471;SDS011;5283;48.876;8.962;2022-08-25T13:01:57;4.87;;;3.30;;
10471;SDS011;5283;48.876;8.962;2022-08-25T13:10:06;3.87;;;3.50;;
10471;SDS011;5283;48.876;8.962;2022-08-25T13:13:05;4.63;;;3.40;;
10471;SDS011;5283;48.876;8.962;2022-08-25T13:16:04;4.07;;;3.63;;
10471;SDS011;5283;48.876;8.962;2022-08-25T13:18:35;4.60;;;3.80;;
10471;SDS011;5283;48.876;8.962;2022-08-25T13:21:12;3.57;;;3.27;;
10471;SDS011;5283;48.876;8.962;2022-08-25T13:23:45;4.77;;;3.63;;
10471;SDS011;5283;48.876;8.962;2022-08-25T13:26:27;3.67;;;3.37;;
10471;SDS011;5283;48.876;8.962;2022-08-25T13:28:58;3.53;;;3.13;;
10471;SDS011;5283;48.876;8.962;2022-08-25T13:31:36;4.20;;;3.37;;
10471;SDS011;5283;48.876;8.962;2022-08-25T13:34:06;4.13;;;3.50;;
10471;SDS011;5283;48.876;8.962;2022-08-25T13:36:36;4.80;;;3.13;;
10471;SDS011;5283;48.876;8.962;2022-08-25T13:39:28;5.73;;;3.17;;
10471;SDS011;5283;48.876;8.962;2022-08-25T13:42:15;4.87;;;3.50;;
10471;SDS011;5283;48.876;8.962;2022-08-25T13:44:43;3.43;;;3.13;;
10471;SDS011;5283;48.876;8.962;2022-08-25T13:47:30;3.73;;;3.43;;
10471;SDS011;5283;48.876;8.962;2022-08-25T13:52:58;5.77;;;3.00;;
10471;SDS011;5283;48.876;8.962;2022-08-25T13:55:46;3.73;;;3.43;;
10471;SDS011;5283;48.876;8.962;2022-08-25T13:58:27;5.10;;;3.13;;
10471;SDS011;5283;48.876;8.962;2022-08-25T14:01:10;3.47;;;3.27;;
10471;SDS011;5283;48.876;8.962;2022-08-25T14:03:42;3.17;;;2.97;;
10471;SDS011;5283;48.876;8.962;2022-08-25T14:08:41;3.23;;;2.90;;
10471;SDS011;5283;48.876;8.962;2022-08-25T14:19:33;3.08;;;2.58;;
10471;SDS011;5283;48.876;8.962;2022-08-25T14:22:00;3.03;;;2.80;;
10471;SDS011;5283;48.876;8.962;2022-08-25T14:24:34;4.53;;;2.83;;
10471;SDS011;5283;48.876;8.962;2022-08-25T14:27:03;4.93;;;2.80;;
10471;SDS011;5283;48.876;8.962;2022-08-25T14:29:30;4.03;;;2.78;;
10471;SDS011;5283;48.876;8.962;2022-08-25T14:31:57;3.20;;;2.90;;
10471;SDS011;5283;48.876;8.962;2022-08-25T14:34:26;3.28;;;3.08;;
10471;SDS011;5283;48.876;8.962;2022-08-25T14:36:57;4.05;;;2.90;;
10471;SDS011;5283;48.876;8.962;2022-08-25T14:39:25;3.05;;;2.78;;
10471;SDS011;5283;48.876;8.962;2022-08-25T14:41:53;4.20;;;3.20;;
10471;SDS011;5283;48.876;8.962;2022-08-25T14:44:20;3.00;;;2.80;;
10471;SDS011;5283;48.876;8.962;2022-08-25T14:46:49;3.10;;;2.83;;
10471;SDS011;5283;48.876;8.962;2022-08-25T14:49:19;3.00;;;2.80;;
10471;SDS011;5283;48.876;8.962;2022-08-25T14:51:48;3.08;;;2.80;;
10471;SDS011;5283;48.876;8.962;2022-08-25T14:54:15;2.80;;;2.60;;
10471;SDS011;5283;48.876;8.962;2022-08-25T14:56:45;3.03;;;2.60;;
10471;SDS011;5283;48.876;8.962;2022-08-25T14:59:13;2.65;;;2.45;;
10471;SDS011;5283;48.876;8.962;2022-08-25T15:01:40;3.17;;;2.97;;
10471;SDS011;5283;48.876;8.962;2022-08-25T15:04:11;5.40;;;3.05;;
10471;SDS011;5283;48.876;8.962;2022-08-25T15:06:42;3.03;;;2.77;;
10471;SDS011;5283;48.876;8.962;2022-08-25T15:09:10;2.80;;;2.60;;
10471;SDS011;5283;48.876;8.962;2022-08-25T15:11:42;2.90;;;2.60;;
10471;SDS011;5283;48.876;8.962;2022-08-25T15:14:11;3.37;;;3.03;;
10471;SDS011;5283;48.876;8.962;2022-08-25T15:16:44;3.60;;;2.50;;
10471;SDS011;5283;48.876;8.962;2022-08-25T15:19:14;2.63;;;2.47;;
10471;SDS011;5283;48.876;8.962;2022-08-25T15:21:43;3.13;;;2.80;;
10471;SDS011;5283;48.876;8.962;2022-08-25T15:24:11;2.77;;;2.57;;
10471;SDS011;5283;48.876;8.962;2022-08-25T15:26:39;5.13;;;2.67;;
10471;SDS011;5283;48.876;8.962;2022-08-25T15:29:24;2.37;;;2.17;;
10471;SDS011;5283;48.876;8.962;2022-08-25T15:31:54;2.90;;;2.70;;
10471;SDS011;5283;48.876;8.962;2022-08-25T15:34:22;2.70;;;2.50;;
10471;SDS011;5283;48.876;8.962;2022-08-25T15:36:49;2.70;;;2.50;;
10471;SDS011;5283;48.876;8.962;2022-08-25T15:39:15;3.03;;;2.80;;
10471;SDS011;5283;48.876;8.962;2022-08-25T15:41:44;3.43;;;2.70;;
10471;SDS011;5283;48.876;8.962;2022-08-25T15:44:13;2.53;;;2.33;;
10471;SDS011;5283;48.876;8.962;2022-08-25T15:46:40;3.03;;;2.83;;
10471;SDS011;5283;48.876;8.962;2022-08-25T15:49:07;2.97;;;2.73;;
10471;SDS011;5283;48.876;8.962;2022-08-25T15:51:34;2.53;;;2.33;;
10471;SDS011;5283;48.876;8.962;2022-08-25T15:54:00;2.60;;;2.40;;
10471;SDS011;5283;48.876;8.962;2022-08-25T15:56:27;3.07;;;2.87;;
10471;SDS011;5283;48.876;8.962;2022-08-25T15:58:54;2.70;;;2.50;;
10471;SDS011;5283;48.876;8.962;2022-08-25T16:01:24;3.97;;;2.70;;
10471;SDS011;5283;48.876;8.962;2022-08-25T16:03:53;3.80;;;2.70;;
10471;SDS011;5283;48.876;8.962;2022-08-25T16:06:20;3.00;;;2.70;;
10471;SDS011;5283;48.876;8.962;2022-08-25T16:08:47;3.30;;;2.63;;
10471;SDS011;5283;48.876;8.962;2022-08-25T16:11:18;2.90;;;2.70;;
10471;SDS011;5283;48.876;8.962;2022-08-25T16:13:46;2.83;;;2.63;;
10471;SDS011;5283;48.876;8.962;2022-08-25T16:16:14;3.67;;;2.97;;
10471;SDS011;5283;48.876;8.962;2022-08-25T16:18:41;3.13;;;2.70;;
10471;SDS011;5283;48.876;8.962;2022-08-25T16:21:09;2.77;;;2.60;;
10471;SDS011;5283;48.876;8.962;2022-08-25T16:23:38;2.67;;;2.53;;
10471;SDS011;5283;48.876;8.962;2022-08-25T16:26:06;3.30;;;3.00;;
10471;SDS011;5283;48.876;8.962;2022-08-25T16:28:35;3.00;;;2.80;;
10471;SDS011;5283;48.876;8.962;2022-08-25T16:31:03;3.10;;;2.77;;
10471;SDS011;5283;48.876;8.962;2022-08-25T16:33:30;3.17;;;2.90;;
10471;SDS011;5283;48.876;8.962;2022-08-25T16:36:12;7.37;;;3.40;;
10471;SDS011;5283;48.876;8.962;2022-08-25T16:38:41;2.90;;;2.70;;
10471;SDS011;5283;48.876;8.962;2022-08-25T16:41:11;4.77;;;3.10;;
10471;SDS011;5283;48.876;8.962;2022-08-25T16:43:42;3.73;;;2.87;;
10471;SDS011;5283;48.876;8.962;2022-08-25T16:46:11;4.10;;;2.70;;
10471;SDS011;5283;48.876;8.962;2022-08-25T16:48:39;3.80;;;2.70;;
10471;SDS011;5283;48.876;8.962;2022-08-25T16:51:08;3.43;;;2.70;;
10471;SDS011;5283;48.876;8.962;2022-08-25T16:53:39;3.40;;;2.73;;
10471;SDS011;5283;48.876;8.962;2022-08-25T16:56:26;3.97;;;2.90;;
10471;SDS011;5283;48.876;8.962;2022-08-25T16:58:53;3.20;;;2.50;;
10471;SDS011;5283;48.876;8.962;2022-08-25T17:01:21;2.83;;;2.63;;
10471;SDS011;5283;48.876;8.962;2022-08-25T17:03:51;2.93;;;2.50;;
10471;SDS011;5283;48.876;8.962;2022-08-25T17:06:21;3.50;;;2.60;;
10471;SDS011;5283;48.876;8.962;2022-08-25T17:08:49;2.90;;;2.70;;
10471;SDS011;5283;48.876;8.962;2022-08-25T17:11:35;3.03;;;2.83;;
10471;SDS011;5283;48.876;8.962;2022-08-25T17:14:10;3.13;;;2.70;;
10471;SDS011;5283;48.876;8.962;2022-08-25T17:16:38;3.20;;;2.80;;
10471;SDS011;5283;48.876;8.962;2022-08-25T17:19:06;2.77;;;2.57;;
10471;SDS011;5283;48.876;8.962;2022-08-25T17:21:36;4.20;;;2.97;;
10471;SDS011;5283;48.876;8.962;2022-08-25T17:24:06;6.23;;;3.40;;
10471;SDS011;5283;48.876;8.962;2022-08-25T17:26:35;3.13;;;2.77;;
10471;SDS011;5283;48.876;8.962;2022-08-25T17:29:03;5.67;;;3.50;;
10471;SDS011;5283;48.876;8.962;2022-08-25T17:31:31;6.20;;;3.10;;
10471;SDS011;5283;48.876;8.962;2022-08-25T17:34:00;2.70;;;2.60;;
10471;SDS011;5283;48.876;8.962;2022-08-25T17:36:27;3.30;;;3.00;;
10471;SDS011;5283;48.876;8.962;2022-08-25T17:38:54;2.80;;;2.50;;
10471;SDS011;5283;48.876;8.962;2022-08-25T17:41:21;8.43;;;3.40;;
10471;SDS011;5283;48.876;8.962;2022-08-25T17:43:48;4.23;;;2.90;;
10471;SDS011;5283;48.876;8.962;2022-08-25T17:46:15;4.70;;;2.57;;